Terminal Aerodrome Forecast
Issued by NWS

Home | Current Version | Previous Version | Text Only | Print | Product List | Glossary On
Versions: 1 2 3 4 5 6 7 8 9 10 11 12 13 14 15 16 17 18 19 20 21 22 23 24 25 26 27 28 29 30
000
FTUS44 KHGX 261140
TAFSGR
TAF
KSGR 261140Z 2612/2712 16006KT P6SM BKN015 OVC030
     FM261500 15009KT P6SM SCT020 BKN150
     FM262100 14011KT P6SM VCTS SCT015 OVC070CB
     FM270100 15010KT P6SM BKN015 BKN100
     FM270900 16010KT P6SM SCT008 OVC015=

USA.gov is the U.S. government's official web portal to all federal, state and local government web resources and services.